createdAt,value
2019-03-05T00:01:25.973Z,5.43
2019-03-05T00:03:55.418Z,3.60
2019-03-05T00:06:24.841Z,3.23
2019-03-05T00:08:54.325Z,4.23
2019-03-05T00:11:23.842Z,4.00
2019-03-05T00:13:53.219Z,1.23
2019-03-05T00:16:22.747Z,2.20
2019-03-05T00:18:52.196Z,1.10
2019-03-05T00:21:21.609Z,2.53
2019-03-05T00:23:56.170Z,2.67
2019-03-05T00:26:34.629Z,3.03
2019-03-05T00:29:10.308Z,2.30
2019-03-05T00:31:40.031Z,2.23
2019-03-05T00:35:08.605Z,2.20
2019-03-05T00:38:01.261Z,1.73
2019-03-05T00:40:41.957Z,6.23
2019-03-05T00:43:41.770Z,4.90
2019-03-05T00:46:26.817Z,3.83
2019-03-05T00:49:46.622Z,2.47
2019-03-05T00:52:33.159Z,2.70
2019-03-05T00:55:34.313Z,4.97
2019-03-05T00:58:46.352Z,4.33
2019-03-05T01:01:34.462Z,6.10
2019-03-05T01:04:41.281Z,4.30
2019-03-05T01:07:10.931Z,5.10
2019-03-05T01:09:40.346Z,4.37
2019-03-05T01:12:10.187Z,6.43
2019-03-05T01:14:39.756Z,9.73
2019-03-05T01:17:09.200Z,4.17
2019-03-05T01:19:38.604Z,8.40
2019-03-05T01:22:08.031Z,12.50
2019-03-05T01:24:37.460Z,6.30
2019-03-05T01:27:06.865Z,7.90
2019-03-05T01:29:36.325Z,6.77
2019-03-05T01:32:24.250Z,7.07
2019-03-05T01:35:19.016Z,6.43
2019-03-05T01:37:49.910Z,5.20
2019-03-05T01:40:40.040Z,4.97
2019-03-05T01:43:09.466Z,3.83
2019-03-05T01:45:38.903Z,4.60
2019-03-05T01:48:08.552Z,5.13
2019-03-05T01:50:37.985Z,5.63
2019-03-05T01:53:07.425Z,7.57
2019-03-05T01:55:36.881Z,8.37
2019-03-05T01:58:06.297Z,10.67
2019-03-05T02:00:36.058Z,9.63
2019-03-05T02:03:05.512Z,11.10
2019-03-05T02:05:34.920Z,7.50
2019-03-05T02:08:04.320Z,4.30
2019-03-05T02:10:33.784Z,5.10
2019-03-05T02:13:03.204Z,6.60
2019-03-05T02:15:32.621Z,6.87
2019-03-05T02:18:02.100Z,4.90
2019-03-05T02:20:31.559Z,9.23
2019-03-05T02:23:14.113Z,8.70
2019-03-05T02:26:17.037Z,5.93
2019-03-05T02:29:30.636Z,3.27
2019-03-05T02:32:49.214Z,5.07
2019-03-05T02:36:05.847Z,2.97
2019-03-05T02:39:06.533Z,4.53
2019-03-05T02:41:55.094Z,10.70
2019-03-05T02:45:11.791Z,8.83
2019-03-05T02:47:58.503Z,5.87
2019-03-05T02:51:04.450Z,5.07
2019-03-05T02:54:00.835Z,6.97
2019-03-05T02:56:47.582Z,5.63
2019-03-05T02:59:15.357Z,4.97
2019-03-05T03:02:12.837Z,5.30
2019-03-05T03:04:45.352Z,5.87
2019-03-05T03:07:14.765Z,3.20
2019-03-05T03:10:13.124Z,8.03
2019-03-05T03:12:43.320Z,5.80
2019-03-05T03:15:14.962Z,5.70
2019-03-05T03:17:44.595Z,6.10
2019-03-05T03:20:15.718Z,8.13
2019-03-05T03:22:45.267Z,5.63
2019-03-05T03:25:16.885Z,6.50
2019-03-05T03:27:46.323Z,7.27
2019-03-05T03:30:17.359Z,8.77
2019-03-05T03:32:46.774Z,8.17
2019-03-05T03:35:16.454Z,9.40
2019-03-05T03:37:45.947Z,6.83
2019-03-05T03:40:17.457Z,6.23
2019-03-05T03:42:46.874Z,6.80
2019-03-05T03:45:18.273Z,8.03
2019-03-05T03:47:48.050Z,4.40
2019-03-05T03:50:17.489Z,8.60
2019-03-05T03:52:46.953Z,5.93
2019-03-05T03:55:16.514Z,7.60
2019-03-05T03:57:45.942Z,10.17
2019-03-05T04:00:18.036Z,7.87
2019-03-05T04:02:47.663Z,5.60
2019-03-05T04:05:17.159Z,7.57
2019-03-05T04:07:46.588Z,8.90
2019-03-05T04:10:16.347Z,7.77
2019-03-05T04:12:45.839Z,8.23
2019-03-05T04:15:17.211Z,4.83
2019-03-05T04:17:46.895Z,7.50
2019-03-05T04:20:23.958Z,10.70
2019-03-05T04:22:53.418Z,6.63
2019-03-05T04:25:22.882Z,7.63
2019-03-05T04:27:52.627Z,6.03
2019-03-05T04:30:22.086Z,8.00
2019-03-05T04:32:51.553Z,5.27
2019-03-05T04:35:21.266Z,5.43
2019-03-05T04:37:52.216Z,6.40
2019-03-05T04:40:21.705Z,11.20
2019-03-05T04:42:51.181Z,9.17
2019-03-05T04:45:54.726Z,6.23
2019-03-05T04:48:24.290Z,8.93
2019-03-05T04:50:59.552Z,9.20
2019-03-05T04:53:29.018Z,14.53
2019-03-05T04:55:58.540Z,9.43
2019-03-05T04:58:28.140Z,11.13
2019-03-05T05:00:57.598Z,7.00
2019-03-05T05:03:27.098Z,6.03
2019-03-05T05:05:56.570Z,6.53
2019-03-05T05:08:26.078Z,9.77
2019-03-05T05:10:55.538Z,10.47
2019-03-05T05:13:25.045Z,7.87
2019-03-05T05:15:54.577Z,8.00
2019-03-05T05:18:24.038Z,12.30
2019-03-05T05:20:53.517Z,9.50
2019-03-05T05:23:23.026Z,9.67
2019-03-05T05:25:52.478Z,6.77
2019-03-05T05:28:21.980Z,12.47
2019-03-05T05:30:51.452Z,8.03
2019-03-05T05:33:20.909Z,8.80
2019-03-05T05:35:50.580Z,8.90
2019-03-05T05:38:20.018Z,11.47
2019-03-05T05:40:49.505Z,10.40
2019-03-05T05:43:24.753Z,7.57
2019-03-05T05:45:54.333Z,10.73
2019-03-05T05:48:23.799Z,10.37
2019-03-05T05:50:53.256Z,8.63
2019-03-05T05:53:22.764Z,9.77
2019-03-05T05:55:52.307Z,12.60
2019-03-05T05:58:21.781Z,10.63
2019-03-05T06:00:53.573Z,13.07
2019-03-05T06:03:23.031Z,8.63
2019-03-05T06:05:52.549Z,14.40
2019-03-05T06:08:22.120Z,8.23
2019-03-05T06:10:52.969Z,10.07
2019-03-05T06:13:22.733Z,7.63
2019-03-05T06:15:52.252Z,11.50
2019-03-05T06:18:21.861Z,12.53
2019-03-05T06:20:51.362Z,9.23
2019-03-05T06:23:20.829Z,9.10
2019-03-05T06:25:50.509Z,10.17
2019-03-05T06:28:19.982Z,10.07
2019-03-05T06:30:49.469Z,9.57
2019-03-05T06:33:18.961Z,12.13
2019-03-05T06:35:49.550Z,8.87
2019-03-05T06:38:19.020Z,9.97
2019-03-05T06:40:48.584Z,10.63
2019-03-05T06:43:18.021Z,12.27
2019-03-05T06:45:47.453Z,11.17
2019-03-05T06:48:16.866Z,14.60
2019-03-05T06:50:46.359Z,10.67
2019-03-05T06:53:15.847Z,8.93
2019-03-05T06:55:45.322Z,16.77
2019-03-05T06:58:14.813Z,11.20
2019-03-05T07:00:44.475Z,9.73
2019-03-05T07:03:13.885Z,9.57
2019-03-05T07:06:19.297Z,14.23
2019-03-05T07:08:53.927Z,11.23
2019-03-05T07:11:46.147Z,14.27
2019-03-05T07:14:21.342Z,9.60
2019-03-05T07:17:03.729Z,13.30
2019-03-05T07:19:59.079Z,11.17
2019-03-05T07:22:57.019Z,14.93
2019-03-05T07:25:26.449Z,12.77
2019-03-05T07:27:59.618Z,12.80
2019-03-05T07:30:29.322Z,11.77
2019-03-05T07:33:00.302Z,9.97
2019-03-05T07:35:32.453Z,13.73
2019-03-05T07:38:01.928Z,8.67
2019-03-05T07:40:31.441Z,10.10
2019-03-05T07:43:00.903Z,13.30
2019-03-05T07:45:30.438Z,7.60
2019-03-05T07:47:59.929Z,12.20
2019-03-05T07:50:29.402Z,9.77
2019-03-05T07:52:59.322Z,9.90
2019-03-05T07:55:28.771Z,15.50
2019-03-05T07:57:58.208Z,11.30
2019-03-05T08:00:27.763Z,7.90
2019-03-05T08:02:57.207Z,8.97
2019-03-05T08:05:26.661Z,7.50
2019-03-05T08:07:56.471Z,12.07
2019-03-05T08:10:31.144Z,6.33
2019-03-05T08:13:39.015Z,8.33
2019-03-05T08:16:19.620Z,7.33
2019-03-05T08:18:49.120Z,8.60
2019-03-05T08:21:19.644Z,6.37
2019-03-05T08:23:51.568Z,10.97
2019-03-05T08:26:21.084Z,8.10
2019-03-05T08:28:50.960Z,7.53
2019-03-05T08:31:20.478Z,8.63
2019-03-05T08:33:50.037Z,11.70
2019-03-05T08:36:19.853Z,9.63
2019-03-05T08:38:49.340Z,11.80
2019-03-05T08:41:18.776Z,10.73
2019-03-05T08:43:48.208Z,9.03
2019-03-05T08:46:17.688Z,8.90
2019-03-05T08:48:47.260Z,10.33
2019-03-05T08:51:16.688Z,10.37
2019-03-05T08:53:49.460Z,5.43
2019-03-05T08:56:17.271Z,6.20
2019-03-05T08:58:46.720Z,7.57
2019-03-05T09:01:16.549Z,8.90
2019-03-05T09:03:45.999Z,7.37
2019-03-05T09:06:15.460Z,7.30
2019-03-05T09:08:45.021Z,10.23
2019-03-05T09:11:14.453Z,8.67
2019-03-05T09:13:43.871Z,5.93
2019-03-05T09:16:13.415Z,6.07
2019-03-05T09:18:42.841Z,8.40
2019-03-05T09:21:12.404Z,13.07
2019-03-05T09:23:41.885Z,5.50
2019-03-05T09:26:11.337Z,7.97
2019-03-05T09:28:40.750Z,5.47
2019-03-05T09:31:10.218Z,4.83
2019-03-05T09:33:39.672Z,6.73
2019-03-05T09:36:09.486Z,6.30
2019-03-05T09:38:38.970Z,7.93
2019-03-05T09:41:08.406Z,8.47
2019-03-05T09:43:37.837Z,7.60
2019-03-05T09:46:07.345Z,6.70
2019-03-05T09:48:36.751Z,5.43
2019-03-05T09:51:06.198Z,7.97
2019-03-05T09:53:35.865Z,7.47
2019-03-05T09:56:06.595Z,7.57
2019-03-05T09:58:37.006Z,7.90
2019-03-05T10:01:06.694Z,8.30
2019-03-05T10:03:36.162Z,4.40
2019-03-05T10:06:06.169Z,4.87
2019-03-05T10:08:35.657Z,8.53
2019-03-05T10:11:05.317Z,5.80
2019-03-05T10:13:34.861Z,4.70
2019-03-05T10:16:04.653Z,6.93
2019-03-05T10:18:34.121Z,6.53
2019-03-05T10:21:03.951Z,8.20
2019-03-05T10:23:33.433Z,6.77
2019-03-05T10:26:02.866Z,7.07
2019-03-05T10:28:33.898Z,5.67
2019-03-05T10:31:03.597Z,6.07
2019-03-05T10:33:33.076Z,23.30
2019-03-05T10:36:02.599Z,8.40
2019-03-05T10:38:32.158Z,10.67
2019-03-05T10:41:01.906Z,8.03
2019-03-05T10:43:31.564Z,9.63
2019-03-05T10:46:01.388Z,8.50
2019-03-05T10:48:30.807Z,7.03
2019-03-05T10:51:00.244Z,11.73
2019-03-05T10:53:30.116Z,7.67
2019-03-05T10:55:59.578Z,8.13
2019-03-05T10:58:33.718Z,9.13
2019-03-05T11:01:00.545Z,8.57
2019-03-05T11:03:30.485Z,8.30
2019-03-05T11:06:00.256Z,7.73
2019-03-05T11:08:29.987Z,7.73
2019-03-05T11:11:01.132Z,6.83
2019-03-05T11:13:30.556Z,7.37
2019-03-05T11:16:00.017Z,11.30
2019-03-05T11:18:30.130Z,6.83
2019-03-05T11:21:00.072Z,8.20
2019-03-05T11:23:29.504Z,6.03
2019-03-05T11:25:58.924Z,9.40
2019-03-05T11:28:28.702Z,9.77
2019-03-05T11:30:58.186Z,4.87
2019-03-05T11:33:27.599Z,9.40
2019-03-05T11:35:57.173Z,8.53
2019-03-05T11:38:26.672Z,9.00
2019-03-05T11:40:56.124Z,7.70
2019-03-05T11:43:25.568Z,8.37
2019-03-05T11:45:55.560Z,8.07
2019-03-05T11:48:25.007Z,5.57
2019-03-05T11:50:54.826Z,8.00
2019-03-05T11:53:24.346Z,8.47
2019-03-05T11:55:53.849Z,8.10
2019-03-05T11:58:23.406Z,8.07
2019-03-05T12:01:24.232Z,5.43
2019-03-05T12:03:53.974Z,6.30
2019-03-05T12:06:23.432Z,10.47
2019-03-05T12:08:52.860Z,7.00
2019-03-05T12:11:22.343Z,9.47
2019-03-05T12:13:51.793Z,8.53
2019-03-05T12:16:21.233Z,7.17
2019-03-05T12:18:50.712Z,6.93
2019-03-05T12:21:21.207Z,8.87
2019-03-05T12:23:50.717Z,7.03
2019-03-05T12:26:20.153Z,6.03
2019-03-05T12:28:49.574Z,8.43
2019-03-05T12:31:19.041Z,12.40
2019-03-05T12:33:48.512Z,14.50
2019-03-05T12:36:17.949Z,15.70
2019-03-05T12:38:47.399Z,10.67
2019-03-05T12:41:16.979Z,12.23
2019-03-05T12:43:46.401Z,7.27
2019-03-05T12:46:15.829Z,7.10
2019-03-05T12:48:45.289Z,9.97
2019-03-05T12:51:14.837Z,7.40
2019-03-05T12:53:44.269Z,7.60
2019-03-05T12:56:23.499Z,7.67
2019-03-05T12:58:46.514Z,12.90
2019-03-05T13:01:16.047Z,6.50
2019-03-05T13:03:45.493Z,10.03
2019-03-05T13:06:14.954Z,10.30
2019-03-05T13:08:44.401Z,9.83
2019-03-05T13:11:14.520Z,10.97
2019-03-05T13:13:47.541Z,6.73
2019-03-05T13:16:15.154Z,9.20
2019-03-05T13:18:44.610Z,10.53
2019-03-05T13:21:14.027Z,9.60
2019-03-05T13:23:43.590Z,9.10
2019-03-05T13:26:13.040Z,13.00
2019-03-05T13:28:42.492Z,9.07
2019-03-05T13:31:11.998Z,13.23
2019-03-05T13:33:42.144Z,15.97
2019-03-05T13:36:12.423Z,13.73
2019-03-05T13:38:45.179Z,12.60
2019-03-05T13:41:15.743Z,12.87
2019-03-05T13:43:45.204Z,11.73
2019-03-05T13:46:14.808Z,12.03
2019-03-05T13:49:17.986Z,11.47
2019-03-05T13:52:22.485Z,14.60
2019-03-05T13:55:40.444Z,12.03
2019-03-05T13:58:31.993Z,11.13
2019-03-05T14:01:01.455Z,13.37
2019-03-05T14:03:41.937Z,10.10
2019-03-05T14:06:38.829Z,11.37
2019-03-05T14:09:14.023Z,12.10
2019-03-05T14:11:44.688Z,12.07
2019-03-05T14:14:18.454Z,9.60
2019-03-05T14:16:49.909Z,14.03
2019-03-05T14:19:19.449Z,9.53
2019-03-05T14:21:48.944Z,9.20
2019-03-05T14:24:18.367Z,9.53
2019-03-05T14:26:47.798Z,11.20
2019-03-05T14:29:17.247Z,12.37
2019-03-05T14:31:46.721Z,10.47
2019-03-05T14:34:16.178Z,11.53
2019-03-05T14:36:45.602Z,12.00
2019-03-05T14:39:24.659Z,8.87
2019-03-05T14:41:54.484Z,11.10
2019-03-05T14:44:24.186Z,13.53
2019-03-05T14:46:58.535Z,13.13
2019-03-05T14:49:28.349Z,12.00
2019-03-05T14:51:57.892Z,12.53
2019-03-05T14:54:28.079Z,11.63
2019-03-05T14:56:57.472Z,8.73
2019-03-05T14:59:26.940Z,10.80
2019-03-05T15:01:56.519Z,11.17
2019-03-05T15:04:26.266Z,7.13
2019-03-05T15:06:55.767Z,10.33
2019-03-05T15:09:25.253Z,15.33
2019-03-05T15:11:54.700Z,10.57
2019-03-05T15:14:24.224Z,12.13
2019-03-05T15:16:53.669Z,6.30
2019-03-05T15:19:23.078Z,14.83
2019-03-05T15:21:52.555Z,10.97
2019-03-05T15:24:22.006Z,11.90
2019-03-05T15:26:51.479Z,14.07
2019-03-05T15:29:20.915Z,8.20
2019-03-05T15:31:50.334Z,9.57
2019-03-05T15:34:20.126Z,24.13
2019-03-05T15:36:52.078Z,19.93
2019-03-05T15:39:20.752Z,17.80
2019-03-05T15:41:50.231Z,16.30
2019-03-05T15:44:19.740Z,19.60
2019-03-05T15:46:49.283Z,25.27
2019-03-05T15:49:18.694Z,25.63
2019-03-05T15:51:48.355Z,25.47
2019-03-05T15:54:17.723Z,21.43
2019-03-05T15:56:47.341Z,21.50
2019-03-05T15:59:16.824Z,17.33
2019-03-05T16:01:46.391Z,12.77
2019-03-05T16:04:15.810Z,14.93
2019-03-05T16:06:45.332Z,22.10
2019-03-05T16:09:19.975Z,14.10
2019-03-05T16:11:49.427Z,17.00
2019-03-05T16:14:18.840Z,18.50
2019-03-05T16:16:51.735Z,18.43
2019-03-05T16:19:19.402Z,20.60
2019-03-05T16:21:48.867Z,18.57
2019-03-05T16:24:18.304Z,19.17
2019-03-05T16:26:47.813Z,22.33
2019-03-05T16:29:20.143Z,22.17
2019-03-05T16:32:10.110Z,18.43
2019-03-05T16:34:52.078Z,24.97
2019-03-05T16:37:34.155Z,13.20
2019-03-05T16:40:28.606Z,12.50
2019-03-05T16:43:14.601Z,12.13
2019-03-05T16:45:57.464Z,9.60
2019-03-05T16:48:48.735Z,8.30
2019-03-05T16:51:32.307Z,13.77
2019-03-05T16:54:19.856Z,13.23
2019-03-05T16:56:56.790Z,8.23
2019-03-05T17:00:03.628Z,10.77
2019-03-05T17:02:45.779Z,11.10
2019-03-05T17:05:34.094Z,10.73
2019-03-05T17:08:28.338Z,12.13
2019-03-05T17:11:05.351Z,11.77
2019-03-05T17:13:34.840Z,14.07
2019-03-05T17:16:04.314Z,15.97
2019-03-05T17:18:33.958Z,16.33
2019-03-05T17:21:03.801Z,20.40
2019-03-05T17:23:33.237Z,15.40
2019-03-05T17:26:02.698Z,12.50
2019-03-05T17:28:32.162Z,11.17
2019-03-05T17:31:01.965Z,13.83
2019-03-05T17:33:31.440Z,15.60
2019-03-05T17:36:00.896Z,15.43
2019-03-05T17:38:30.328Z,18.37
2019-03-05T17:40:59.837Z,16.50
2019-03-05T17:43:29.399Z,15.87
2019-03-05T17:45:58.893Z,16.57
2019-03-05T17:48:28.593Z,14.10
2019-03-05T17:50:58.168Z,15.43
2019-03-05T17:53:27.690Z,15.50
2019-03-05T17:55:57.148Z,15.40
2019-03-05T17:58:26.636Z,15.77
2019-03-05T18:00:57.569Z,15.23
2019-03-05T18:03:27.139Z,15.10
2019-03-05T18:05:56.768Z,16.63
2019-03-05T18:08:26.270Z,16.27
2019-03-05T18:10:55.829Z,20.63
2019-03-05T18:13:25.314Z,20.17
2019-03-05T18:15:54.769Z,25.20
2019-03-05T18:18:24.261Z,39.03
2019-03-05T18:20:53.738Z,32.33
2019-03-05T18:23:23.201Z,24.20
2019-03-05T18:25:52.781Z,26.37
2019-03-05T18:28:22.284Z,25.93
2019-03-05T18:30:51.792Z,30.17
2019-03-05T18:33:21.297Z,26.30
2019-03-05T18:35:50.806Z,25.80
2019-03-05T18:38:20.303Z,28.17
2019-03-05T18:40:49.964Z,24.23
2019-03-05T18:43:19.526Z,24.27
2019-03-05T18:45:48.985Z,44.03
2019-03-05T18:48:18.453Z,23.67
2019-03-05T18:50:47.980Z,24.00
2019-03-05T18:53:17.703Z,26.47
2019-03-05T18:55:47.248Z,22.30
2019-03-05T18:58:16.756Z,20.70
2019-03-05T19:00:46.341Z,28.13
2019-03-05T19:03:15.985Z,23.23
2019-03-05T19:05:45.465Z,26.47
2019-03-05T19:08:14.989Z,22.47
2019-03-05T19:10:44.485Z,28.80
2019-03-05T19:13:13.955Z,25.57
2019-03-05T19:15:43.465Z,23.57
2019-03-05T19:18:13.061Z,26.43
2019-03-05T19:20:43.497Z,20.07
2019-03-05T19:23:13.068Z,20.33
2019-03-05T19:25:42.605Z,21.83
2019-03-05T19:28:12.421Z,21.67
2019-03-05T19:30:41.997Z,18.10
2019-03-05T19:33:11.454Z,14.70
2019-03-05T19:35:40.962Z,21.50
2019-03-05T19:38:10.541Z,24.23
2019-03-05T19:40:40.057Z,20.53
2019-03-05T19:43:09.615Z,17.83
2019-03-05T19:45:39.109Z,21.97
2019-03-05T19:48:08.618Z,17.97
2019-03-05T19:50:38.109Z,15.80
2019-03-05T19:53:07.651Z,14.60
2019-03-05T19:55:37.469Z,14.13
2019-03-05T19:58:11.229Z,18.47
2019-03-05T20:00:50.042Z,17.23
2019-03-05T20:03:19.576Z,14.13
2019-03-05T20:05:49.179Z,17.07
2019-03-05T20:08:18.905Z,16.90
2019-03-05T20:10:48.526Z,23.03
2019-03-05T20:13:18.224Z,16.43
2019-03-05T20:15:47.702Z,13.77
2019-03-05T20:18:17.194Z,14.13
2019-03-05T20:20:46.905Z,18.87
2019-03-05T20:23:16.362Z,18.33
2019-03-05T20:25:45.937Z,18.47
2019-03-05T20:28:15.544Z,17.77
2019-03-05T20:30:45.033Z,20.33
2019-03-05T20:33:14.516Z,19.13
2019-03-05T20:35:44.162Z,15.40
2019-03-05T20:38:13.779Z,12.83
2019-03-05T20:40:43.296Z,16.13
2019-03-05T20:43:12.806Z,20.30
2019-03-05T20:45:42.390Z,20.83
2019-03-05T20:48:11.886Z,18.53
2019-03-05T20:50:41.383Z,17.23
2019-03-05T20:53:11.047Z,17.47
2019-03-05T20:55:40.529Z,17.27
2019-03-05T20:58:10.829Z,16.63
2019-03-05T21:00:40.682Z,17.77
2019-03-05T21:03:10.280Z,18.47
2019-03-05T21:05:41.817Z,27.67
2019-03-05T21:08:11.270Z,32.13
2019-03-05T21:10:40.859Z,27.57
2019-03-05T21:13:10.665Z,36.30
2019-03-05T21:15:40.136Z,34.07
2019-03-05T21:18:09.648Z,29.30
2019-03-05T21:20:39.344Z,25.37
2019-03-05T21:23:08.874Z,23.97
2019-03-05T21:25:38.384Z,22.53
2019-03-05T21:28:07.909Z,27.40
2019-03-05T21:30:37.596Z,25.20
2019-03-05T21:33:07.236Z,17.27
2019-03-05T21:35:36.763Z,17.23
2019-03-05T21:38:06.284Z,20.63
2019-03-05T21:40:35.854Z,21.63
2019-03-05T21:43:05.389Z,17.97
2019-03-05T21:45:36.322Z,19.87
2019-03-05T21:48:06.397Z,20.07
2019-03-05T21:50:36.238Z,17.27
2019-03-05T21:53:06.076Z,18.60
2019-03-05T21:55:35.622Z,19.20
2019-03-05T21:58:05.117Z,21.93
2019-03-05T22:00:34.638Z,17.60
2019-03-05T22:03:04.980Z,20.30
2019-03-05T22:05:34.476Z,19.53
2019-03-05T22:08:04.046Z,16.53
2019-03-05T22:10:33.852Z,20.33
2019-03-05T22:13:03.698Z,15.67
2019-03-05T22:15:33.317Z,18.67
2019-03-05T22:18:02.999Z,22.10
2019-03-05T22:20:32.509Z,18.67
2019-03-05T22:23:02.437Z,14.80
2019-03-05T22:25:31.919Z,16.03
2019-03-05T22:28:01.747Z,15.30
2019-03-05T22:30:31.679Z,14.40
2019-03-05T22:33:01.222Z,19.87
2019-03-05T22:35:30.761Z,17.40
2019-03-05T22:38:00.214Z,14.30
2019-03-05T22:40:29.679Z,17.37
2019-03-05T22:42:59.233Z,15.10
2019-03-05T22:45:28.746Z,15.63
2019-03-05T22:47:58.508Z,13.43
2019-03-05T22:50:28.031Z,16.07
2019-03-05T22:52:57.501Z,16.17
2019-03-05T22:55:27.259Z,17.27
2019-03-05T22:57:57.511Z,17.10
2019-03-05T23:01:05.486Z,17.33
2019-03-05T23:03:35.392Z,19.90
2019-03-05T23:06:06.390Z,17.30
2019-03-05T23:08:35.837Z,17.53
2019-03-05T23:11:05.707Z,21.07
2019-03-05T23:13:35.893Z,17.20
2019-03-05T23:16:06.034Z,18.70
2019-03-05T23:18:35.620Z,20.30
2019-03-05T23:21:05.226Z,21.53
2019-03-05T23:23:34.797Z,21.87
2019-03-05T23:26:04.598Z,24.77
2019-03-05T23:28:34.039Z,17.30
2019-03-05T23:31:03.488Z,19.90
2019-03-05T23:33:32.933Z,22.20
2019-03-05T23:36:02.514Z,16.83
2019-03-05T23:38:32.277Z,21.90
2019-03-05T23:41:01.837Z,18.67
2019-03-05T23:43:31.317Z,18.20
2019-03-05T23:46:00.834Z,17.57
2019-03-05T23:48:30.363Z,23.90
2019-03-05T23:51:00.207Z,25.27
2019-03-05T23:53:29.709Z,22.50
2019-03-05T23:55:59.305Z,23.10
2019-03-05T23:58:28.787Z,22.47
